createdAt,value
2018-09-04T00:02:12.621Z,21.60
2018-09-04T00:04:41.118Z,28.37
2018-09-04T00:07:09.648Z,26.20
2018-09-04T00:09:38.034Z,24.27
2018-09-04T00:12:06.539Z,27.87
2018-09-04T00:14:35.188Z,27.60
2018-09-04T00:17:03.718Z,23.13
2018-09-04T00:19:32.165Z,29.50
2018-09-04T00:22:00.643Z,28.93
2018-09-04T00:24:34.664Z,29.13
2018-09-04T00:27:03.139Z,28.43
2018-09-04T00:29:31.704Z,27.30
2018-09-04T00:32:00.103Z,22.97
2018-09-04T00:34:28.612Z,28.50
2018-09-04T00:36:57.079Z,27.77
2018-09-04T00:39:25.592Z,27.40
2018-09-04T00:41:53.992Z,26.47
2018-09-04T00:44:22.696Z,32.27
2018-09-04T00:46:51.168Z,25.00
2018-09-04T00:49:19.744Z,24.97
2018-09-04T00:51:48.403Z,35.17
2018-09-04T00:54:16.896Z,27.23
2018-09-04T00:56:45.289Z,24.53
2018-09-04T00:59:13.760Z,32.10
2018-09-04T01:01:42.439Z,25.60
2018-09-04T01:04:11.004Z,27.43
2018-09-04T01:06:39.467Z,29.67
2018-09-04T01:09:08.089Z,31.20
2018-09-04T01:11:36.609Z,30.53
2018-09-04T01:14:05.065Z,28.20
2018-09-04T01:16:33.802Z,25.27
2018-09-04T01:19:02.220Z,38.17
2018-09-04T01:21:30.707Z,33.63
2018-09-04T01:23:59.228Z,28.83
2018-09-04T01:26:27.660Z,34.83
2018-09-04T01:28:56.204Z,25.93
2018-09-04T01:31:24.621Z,26.53
2018-09-04T01:33:53.187Z,29.27
2018-09-04T01:36:21.581Z,36.33
2018-09-04T01:38:50.094Z,32.67
2018-09-04T01:41:18.542Z,29.90
2018-09-04T01:43:47.025Z,27.13
2018-09-04T01:46:15.576Z,31.47
2018-09-04T01:48:44.005Z,27.90
2018-09-04T01:51:12.475Z,28.97
2018-09-04T01:53:41.354Z,27.70
2018-09-04T01:56:09.963Z,32.63
2018-09-04T01:58:38.650Z,27.83
2018-09-04T02:01:07.214Z,28.47
2018-09-04T02:03:35.714Z,33.63
2018-09-04T02:06:04.212Z,29.37
2018-09-04T02:08:32.692Z,31.00
2018-09-04T02:11:01.177Z,28.37
2018-09-04T02:13:29.849Z,32.10
2018-09-04T02:15:58.316Z,32.23
2018-09-04T02:18:26.769Z,30.77
2018-09-04T02:20:55.343Z,29.90
2018-09-04T02:23:23.760Z,34.60
2018-09-04T02:25:52.211Z,34.60
2018-09-04T02:28:20.821Z,28.43
2018-09-04T02:30:49.371Z,27.00
2018-09-04T02:33:17.904Z,31.70
2018-09-04T02:35:46.508Z,32.40
2018-09-04T02:38:15.043Z,31.80
2018-09-04T02:40:43.497Z,31.60
2018-09-04T02:43:12.195Z,29.83
2018-09-04T02:45:40.705Z,36.33
2018-09-04T02:48:09.425Z,32.17
2018-09-04T02:50:37.842Z,29.10
2018-09-04T02:53:06.490Z,28.30
2018-09-04T02:55:35.129Z,30.13
2018-09-04T02:58:03.960Z,35.53
2018-09-04T03:00:32.419Z,36.53
2018-09-04T03:03:00.850Z,30.67
2018-09-04T03:05:35.037Z,31.30
2018-09-04T03:08:03.580Z,33.37
2018-09-04T03:10:32.208Z,30.27
2018-09-04T03:13:00.721Z,33.77
2018-09-04T03:15:29.570Z,36.20
2018-09-04T03:17:58.091Z,30.67
2018-09-04T03:20:26.627Z,26.20
2018-09-04T03:22:55.118Z,32.77
2018-09-04T03:25:23.547Z,31.37
2018-09-04T03:27:52.046Z,33.40
2018-09-04T03:30:20.502Z,35.77
2018-09-04T03:32:49.107Z,37.63
2018-09-04T03:35:17.672Z,35.60
2018-09-04T03:37:46.248Z,35.47
2018-09-04T03:40:14.808Z,29.13
2018-09-04T03:42:43.332Z,34.67
2018-09-04T03:45:11.868Z,37.20
2018-09-04T03:47:40.276Z,36.50
2018-09-04T03:50:09.136Z,29.03
2018-09-04T03:52:37.639Z,35.50
2018-09-04T03:55:06.422Z,29.30
2018-09-04T03:57:35.397Z,39.83
2018-09-04T04:00:03.889Z,29.83
2018-09-04T04:02:32.362Z,29.70
2018-09-04T04:05:00.864Z,31.47
2018-09-04T04:07:29.563Z,37.33
2018-09-04T04:09:58.028Z,35.53
2018-09-04T04:12:26.505Z,34.27
2018-09-04T04:14:55.135Z,37.27
2018-09-04T04:17:23.702Z,36.30
2018-09-04T04:19:52.183Z,38.50
2018-09-04T04:22:20.630Z,31.50
2018-09-04T04:24:49.130Z,28.87
2018-09-04T04:27:17.672Z,30.17
2018-09-04T04:29:46.096Z,29.40
2018-09-04T04:32:14.629Z,36.53
2018-09-04T04:34:43.060Z,38.17
2018-09-04T04:37:11.564Z,33.43
2018-09-04T04:39:40.024Z,35.50
2018-09-04T04:42:08.572Z,34.77
2018-09-04T04:44:37.140Z,37.83
2018-09-04T04:47:05.679Z,34.67
2018-09-04T04:49:34.199Z,36.87
2018-09-04T04:52:02.701Z,34.50
2018-09-04T04:54:31.284Z,33.20
2018-09-04T04:56:59.770Z,33.43
2018-09-04T04:59:29.770Z,34.47
2018-09-04T05:01:58.176Z,37.07
2018-09-04T05:04:26.676Z,33.60
2018-09-04T05:06:55.352Z,38.67
2018-09-04T05:09:23.856Z,33.30
2018-09-04T05:11:52.311Z,34.13
2018-09-04T05:14:20.776Z,34.57
2018-09-04T05:16:49.238Z,33.33
2018-09-04T05:19:17.759Z,33.20
2018-09-04T05:21:46.240Z,32.67
2018-09-04T05:24:14.692Z,36.50
2018-09-04T05:26:43.157Z,25.87
2018-09-04T05:29:11.700Z,35.53
2018-09-04T05:31:52.224Z,29.43
2018-09-04T05:34:22.712Z,29.90
2018-09-04T05:36:51.370Z,24.37
2018-09-04T05:39:19.979Z,31.50
2018-09-04T05:41:48.370Z,32.00
2018-09-04T05:44:16.929Z,31.83
2018-09-04T05:46:47.440Z,33.07
2018-09-04T05:49:19.326Z,26.80
2018-09-04T05:51:47.997Z,34.60
2018-09-04T05:54:16.569Z,31.80
2018-09-04T05:56:44.988Z,30.00
2018-09-04T05:59:13.520Z,32.20
2018-09-04T06:01:42.882Z,33.30
2018-09-04T06:04:11.496Z,33.87
2018-09-04T06:06:39.952Z,35.63
2018-09-04T06:09:08.660Z,31.60
2018-09-04T06:11:37.104Z,39.70
2018-09-04T06:14:05.832Z,29.23
2018-09-04T06:16:34.262Z,29.30
2018-09-04T06:19:02.791Z,36.10
2018-09-04T06:21:31.220Z,36.07
2018-09-04T06:23:59.720Z,29.70
2018-09-04T06:26:28.236Z,24.93
2018-09-04T06:28:56.647Z,35.63
2018-09-04T06:31:25.220Z,33.67
2018-09-04T06:33:54.001Z,29.07
2018-09-04T06:36:22.591Z,35.60
2018-09-04T06:38:51.033Z,30.33
2018-09-04T06:41:19.488Z,35.33
2018-09-04T06:43:48.004Z,34.83
2018-09-04T06:46:16.472Z,37.10
2018-09-04T06:48:45.133Z,34.30
2018-09-04T06:51:13.596Z,39.00
2018-09-04T06:53:42.090Z,37.87
2018-09-04T06:56:10.567Z,35.83
2018-09-04T06:58:39.104Z,33.43
2018-09-04T07:01:07.753Z,33.57
2018-09-04T07:03:36.715Z,35.20
2018-09-04T07:06:05.439Z,38.27
2018-09-04T07:08:33.780Z,31.23
2018-09-04T07:11:02.335Z,39.70
2018-09-04T07:13:30.774Z,38.60
2018-09-04T07:15:59.323Z,32.83
2018-09-04T07:18:27.956Z,35.53
2018-09-04T07:20:56.475Z,34.23
2018-09-04T07:23:24.912Z,41.60
2018-09-04T07:25:53.380Z,36.90
2018-09-04T07:28:22.121Z,42.73
2018-09-04T07:30:50.549Z,42.37
2018-09-04T07:33:18.991Z,37.53
2018-09-04T07:35:47.512Z,29.80
2018-09-04T07:38:16.013Z,32.80
2018-09-04T07:40:44.418Z,28.70
2018-09-04T07:43:12.936Z,29.13
2018-09-04T07:45:41.662Z,21.60
2018-09-04T07:48:10.324Z,22.83
2018-09-04T07:50:38.774Z,20.57
2018-09-04T07:53:07.504Z,22.93
2018-09-04T07:55:35.937Z,20.53
2018-09-04T07:58:04.501Z,18.90
2018-09-04T08:00:32.913Z,16.93
2018-09-04T08:03:01.432Z,19.73
2018-09-04T08:05:30.271Z,20.40
2018-09-04T08:07:58.854Z,19.30
2018-09-04T08:10:27.714Z,29.07
2018-09-04T08:12:56.341Z,18.43
2018-09-04T08:15:24.836Z,18.03
2018-09-04T08:17:53.365Z,17.13
2018-09-04T08:20:21.876Z,18.43
2018-09-04T08:22:50.488Z,20.03
2018-09-04T08:25:18.956Z,18.63
2018-09-04T08:27:47.431Z,21.70
2018-09-04T08:30:16.073Z,19.50
2018-09-04T08:32:44.701Z,16.50
2018-09-04T08:35:17.201Z,19.40
2018-09-04T08:37:45.669Z,20.60
2018-09-04T08:40:14.384Z,17.93
2018-09-04T08:42:42.808Z,19.20
2018-09-04T08:45:11.790Z,21.90
2018-09-04T08:47:40.373Z,18.60
2018-09-04T08:50:08.856Z,20.63
2018-09-04T08:52:37.335Z,18.37
2018-09-04T08:55:06.003Z,18.87
2018-09-04T08:57:34.792Z,20.03
2018-09-04T09:00:03.415Z,19.53
2018-09-04T09:02:31.887Z,19.10
2018-09-04T09:05:00.391Z,20.70
2018-09-04T09:07:30.236Z,25.83
2018-09-04T09:09:58.751Z,19.93
2018-09-04T09:12:27.193Z,18.70
2018-09-04T09:14:55.681Z,19.70
2018-09-04T09:17:24.152Z,16.87
2018-09-04T09:19:53.112Z,18.83
2018-09-04T09:22:21.907Z,18.27
2018-09-04T09:24:50.452Z,17.90
2018-09-04T09:27:19.161Z,18.73
2018-09-04T09:29:47.609Z,18.47
2018-09-04T09:32:16.108Z,22.10
2018-09-04T09:34:44.566Z,20.00
2018-09-04T09:37:13.021Z,15.77
2018-09-04T09:39:41.500Z,18.43
2018-09-04T09:42:12.620Z,17.60
2018-09-04T09:44:42.334Z,19.60
2018-09-04T09:47:10.840Z,15.90
2018-09-04T09:49:39.597Z,18.50
2018-09-04T09:52:08.025Z,19.10
2018-09-04T09:54:36.657Z,16.40
2018-09-04T09:57:05.167Z,20.90
2018-09-04T09:59:33.787Z,20.33
2018-09-04T10:02:07.520Z,21.90
2018-09-04T10:04:36.089Z,16.70
2018-09-04T10:07:04.836Z,17.47
2018-09-04T10:09:33.350Z,18.27
2018-09-04T10:12:01.830Z,21.10
2018-09-04T10:14:30.295Z,17.30
2018-09-04T10:16:59.365Z,20.83
2018-09-04T10:19:27.833Z,20.20
2018-09-04T10:21:56.314Z,16.30
2018-09-04T10:24:24.861Z,18.30
2018-09-04T10:26:53.406Z,18.13
2018-09-04T10:29:22.001Z,19.83
2018-09-04T10:31:50.467Z,16.23
2018-09-04T10:34:18.960Z,17.73
2018-09-04T10:36:47.600Z,17.47
2018-09-04T10:39:21.304Z,18.20
2018-09-04T10:41:49.714Z,17.67
2018-09-04T10:44:18.306Z,18.00
2018-09-04T10:46:46.647Z,19.27
2018-09-04T10:49:15.123Z,18.20
2018-09-04T10:51:43.631Z,17.50
2018-09-04T10:54:12.232Z,18.90
2018-09-04T10:56:40.812Z,17.00
2018-09-04T10:59:09.281Z,18.10
2018-09-04T11:01:37.961Z,19.07
2018-09-04T11:04:06.499Z,19.00
2018-09-04T11:06:34.952Z,18.33
2018-09-04T11:09:03.521Z,17.60
2018-09-04T11:11:31.909Z,17.73
2018-09-04T11:14:00.342Z,16.30
2018-09-04T11:16:28.831Z,18.60
2018-09-04T11:18:57.331Z,25.07
2018-09-04T11:21:25.976Z,16.20
2018-09-04T11:23:54.461Z,18.53
2018-09-04T11:26:22.925Z,17.10
2018-09-04T11:28:55.850Z,18.30
2018-09-04T11:31:24.446Z,17.83
2018-09-04T11:33:53.143Z,17.03
2018-09-04T11:36:21.569Z,20.80
2018-09-04T11:38:50.117Z,17.63
2018-09-04T11:41:18.569Z,17.23
2018-09-04T11:43:47.077Z,17.57
2018-09-04T11:46:15.514Z,17.43
2018-09-04T11:48:44.084Z,17.90
2018-09-04T11:51:12.617Z,18.50
2018-09-04T11:53:41.182Z,16.97
2018-09-04T11:56:09.878Z,16.73
2018-09-04T11:58:38.347Z,17.10
2018-09-04T12:01:13.158Z,16.67
2018-09-04T12:03:41.650Z,17.43
2018-09-04T12:06:10.358Z,18.23
2018-09-04T12:08:38.799Z,15.67
2018-09-04T12:11:07.265Z,16.20
2018-09-04T12:13:35.969Z,16.97
2018-09-04T12:16:04.557Z,17.57
2018-09-04T12:18:35.161Z,15.97
2018-09-04T12:21:08.484Z,16.10
2018-09-04T12:23:37.348Z,17.50
2018-09-04T12:26:07.199Z,16.67
2018-09-04T12:28:36.104Z,16.60
2018-09-04T12:31:04.987Z,20.60
2018-09-04T12:33:33.887Z,19.37
2018-09-04T12:36:02.310Z,16.77
2018-09-04T12:38:32.524Z,18.40
2018-09-04T12:41:05.183Z,15.60
2018-09-04T12:43:35.177Z,17.93
2018-09-04T12:46:03.705Z,17.60
2018-09-04T12:48:32.215Z,17.03
2018-09-04T12:51:01.869Z,17.50
2018-09-04T12:53:32.329Z,17.27
2018-09-04T12:56:00.817Z,16.73
2018-09-04T12:58:29.325Z,17.07
2018-09-04T13:00:58.361Z,17.57
2018-09-04T13:03:28.059Z,16.30
2018-09-04T13:05:56.818Z,16.50
2018-09-04T13:08:26.894Z,16.23
2018-09-04T13:10:55.405Z,19.53
2018-09-04T13:13:24.188Z,17.33
2018-09-04T13:15:57.473Z,18.57
2018-09-04T13:18:26.848Z,17.97
2018-09-04T13:21:02.952Z,16.20
2018-09-04T13:23:32.790Z,16.07
2018-09-04T13:26:01.194Z,17.77
2018-09-04T13:28:30.405Z,15.40
2018-09-04T13:30:58.976Z,16.87
2018-09-04T13:33:29.506Z,16.70
2018-09-04T13:35:57.998Z,17.13
2018-09-04T13:38:26.720Z,15.87
2018-09-04T13:41:00.708Z,15.83
2018-09-04T13:43:29.180Z,15.20
2018-09-04T13:45:57.682Z,16.90
2018-09-04T13:48:28.064Z,15.57
2018-09-04T13:50:56.635Z,16.70
2018-09-04T13:53:25.262Z,16.70
2018-09-04T13:55:53.924Z,17.00
2018-09-04T13:58:22.499Z,17.63
2018-09-04T14:00:51.040Z,16.23
2018-09-04T14:03:19.507Z,17.73
2018-09-04T14:05:48.173Z,16.63
2018-09-04T14:08:16.688Z,16.57
2018-09-04T14:10:45.380Z,16.63
2018-09-04T14:13:13.841Z,17.20
2018-09-04T14:15:42.311Z,18.03
2018-09-04T14:18:10.798Z,16.73
2018-09-04T14:20:40.220Z,17.37
2018-09-04T14:23:08.771Z,16.40
2018-09-04T14:25:37.288Z,15.83
2018-09-04T14:28:05.896Z,17.70
2018-09-04T14:30:34.492Z,15.80
2018-09-04T14:33:02.879Z,16.83
2018-09-04T14:35:31.393Z,15.53
2018-09-04T14:37:59.892Z,22.03
2018-09-04T14:40:28.356Z,16.70
2018-09-04T14:42:57.038Z,15.73
2018-09-04T14:45:25.530Z,17.10
2018-09-04T14:47:53.970Z,17.40
2018-09-04T14:50:22.435Z,17.83
2018-09-04T14:52:50.988Z,16.30
2018-09-04T14:55:19.461Z,17.20
2018-09-04T14:57:47.952Z,16.23
2018-09-04T15:00:17.411Z,17.53
2018-09-04T15:02:46.127Z,17.77
2018-09-04T15:05:14.740Z,16.60
2018-09-04T15:07:43.224Z,16.27
2018-09-04T15:10:11.927Z,17.13
2018-09-04T15:12:40.431Z,16.40
2018-09-04T15:15:09.073Z,18.47
2018-09-04T15:17:37.578Z,16.37
2018-09-04T15:20:06.282Z,18.60
2018-09-04T15:22:34.720Z,17.80
2018-09-04T15:25:03.272Z,17.50
2018-09-04T15:27:31.696Z,17.60
2018-09-04T15:30:00.360Z,16.93
2018-09-04T15:32:28.973Z,16.77
2018-09-04T15:34:57.569Z,17.03
2018-09-04T15:37:26.128Z,15.83
2018-09-04T15:39:54.681Z,18.33
2018-09-04T15:42:23.220Z,17.43
2018-09-04T15:44:51.656Z,17.00
2018-09-04T15:47:20.186Z,16.00
2018-09-04T15:49:49.169Z,17.30
2018-09-04T15:52:17.984Z,15.70
2018-09-04T15:54:46.415Z,16.83
2018-09-04T15:57:15.248Z,16.10
2018-09-04T15:59:43.754Z,17.73
2018-09-04T16:02:12.352Z,17.70
2018-09-04T16:04:40.981Z,17.23
2018-09-04T16:07:09.399Z,17.00
2018-09-04T16:09:37.948Z,17.07
2018-09-04T16:12:06.404Z,17.00
2018-09-04T16:14:34.877Z,16.80
2018-09-04T16:17:03.395Z,15.93
2018-09-04T16:19:31.803Z,17.03
2018-09-04T16:22:00.327Z,16.77
2018-09-04T16:24:28.814Z,16.90
2018-09-04T16:26:57.322Z,16.07
2018-09-04T16:29:25.757Z,17.70
2018-09-04T16:31:54.202Z,16.90
2018-09-04T16:34:22.749Z,17.37
2018-09-04T16:36:51.187Z,16.70
2018-09-04T16:39:19.939Z,17.10
2018-09-04T16:41:48.541Z,17.23
2018-09-04T16:44:17.052Z,17.17
2018-09-04T16:46:45.544Z,16.33
2018-09-04T16:49:14.312Z,17.00
2018-09-04T16:51:42.907Z,16.97
2018-09-04T16:54:11.389Z,18.10
2018-09-04T16:56:39.928Z,16.60
2018-09-04T16:59:08.538Z,16.93
2018-09-04T17:01:37.096Z,17.00
2018-09-04T17:04:05.537Z,16.20
2018-09-04T17:06:36.409Z,16.40
2018-09-04T17:09:05.608Z,16.50
2018-09-04T17:11:34.116Z,16.30
2018-09-04T17:14:02.680Z,16.57
2018-09-04T17:16:31.297Z,16.27
2018-09-04T17:18:59.946Z,17.20
2018-09-04T17:21:30.181Z,17.70
2018-09-04T17:23:58.663Z,19.13
2018-09-04T17:26:27.123Z,16.73
2018-09-04T17:28:55.644Z,16.37
2018-09-04T17:31:24.092Z,16.50
2018-09-04T17:33:52.648Z,16.63
2018-09-04T17:36:21.320Z,17.13
2018-09-04T17:38:49.908Z,16.00
2018-09-04T17:41:18.488Z,16.87
2018-09-04T17:43:46.917Z,17.50
2018-09-04T17:46:15.386Z,16.47
2018-09-04T17:48:43.922Z,17.40
2018-09-04T17:51:12.381Z,17.13
2018-09-04T17:53:40.812Z,15.50
2018-09-04T17:56:09.293Z,15.97
2018-09-04T17:58:37.820Z,16.20
2018-09-04T18:01:06.566Z,16.70
2018-09-04T18:03:34.988Z,18.63
2018-09-04T18:06:03.456Z,15.60
2018-09-04T18:08:32.680Z,15.10
2018-09-04T18:11:01.200Z,16.30
2018-09-04T18:13:29.848Z,15.50
2018-09-04T18:15:58.368Z,14.90
2018-09-04T18:18:26.841Z,15.93
2018-09-04T18:20:55.365Z,15.50
2018-09-04T18:23:23.840Z,16.67
2018-09-04T18:25:52.263Z,14.10
2018-09-04T18:28:20.790Z,16.37
2018-09-04T18:30:49.292Z,16.17
2018-09-04T18:33:17.720Z,16.20
2018-09-04T18:35:46.203Z,15.27
2018-09-04T18:38:14.728Z,14.87
2018-09-04T18:40:43.148Z,15.33
2018-09-04T18:43:11.665Z,15.13
2018-09-04T18:45:46.088Z,17.53
2018-09-04T18:48:14.594Z,15.37
2018-09-04T18:50:43.531Z,14.40
2018-09-04T18:53:11.911Z,14.80
2018-09-04T18:55:40.445Z,13.53
2018-09-04T18:58:09.482Z,13.90
2018-09-04T19:00:38.040Z,14.30
2018-09-04T19:03:06.631Z,14.30
2018-09-04T19:05:35.215Z,13.10
2018-09-04T19:08:03.640Z,13.23
2018-09-04T19:10:35.981Z,14.13
2018-09-04T19:13:04.846Z,13.27
2018-09-04T19:15:33.348Z,14.50
2018-09-04T19:18:01.883Z,15.30
2018-09-04T19:20:30.356Z,12.93
2018-09-04T19:22:58.811Z,15.50
2018-09-04T19:25:27.324Z,13.50
2018-09-04T19:27:55.791Z,14.93
2018-09-04T19:30:24.297Z,14.30
2018-09-04T19:32:52.989Z,14.33
2018-09-04T19:35:21.458Z,13.77
2018-09-04T19:37:53.388Z,13.03
2018-09-04T19:40:21.869Z,14.63
2018-09-04T19:42:53.407Z,14.80
2018-09-04T19:45:21.981Z,15.10
2018-09-04T19:47:50.386Z,13.57
2018-09-04T19:50:18.897Z,13.87
2018-09-04T19:52:47.348Z,14.20
2018-09-04T19:55:15.870Z,13.77
2018-09-04T19:57:44.294Z,15.20
2018-09-04T20:00:13.300Z,15.83
2018-09-04T20:02:41.873Z,14.70
2018-09-04T20:05:10.540Z,14.33
2018-09-04T20:07:39.430Z,18.03
2018-09-04T20:10:07.995Z,14.43
2018-09-04T20:12:38.019Z,14.97
2018-09-04T20:15:06.529Z,14.07
2018-09-04T20:17:35.027Z,13.63
2018-09-04T20:20:03.560Z,15.73
2018-09-04T20:22:32.020Z,31.20
2018-09-04T20:25:00.491Z,14.97
2018-09-04T20:27:28.948Z,15.70
2018-09-04T20:29:57.583Z,14.50
2018-09-04T20:32:26.131Z,16.37
2018-09-04T20:34:54.649Z,15.70
2018-09-04T20:37:23.122Z,14.03
2018-09-04T20:39:51.995Z,14.93
2018-09-04T20:42:20.586Z,14.83
2018-09-04T20:44:49.080Z,14.63
2018-09-04T20:47:17.564Z,13.83
2018-09-04T20:49:46.141Z,15.10
2018-09-04T20:52:14.520Z,14.83
2018-09-04T20:54:43.004Z,15.00
2018-09-04T20:57:29.906Z,15.10
2018-09-04T21:00:11.101Z,15.47
2018-09-04T21:02:50.765Z,15.93
2018-09-04T21:05:30.504Z,16.00
2018-09-04T21:08:43.280Z,17.17
2018-09-04T21:11:11.837Z,15.63
2018-09-04T21:13:40.275Z,15.70
2018-09-04T21:16:08.775Z,17.33
2018-09-04T21:18:37.223Z,16.80
2018-09-04T21:21:06.319Z,16.30
2018-09-04T21:23:34.847Z,15.53
2018-09-04T21:26:03.527Z,14.83
2018-09-04T21:28:32.015Z,17.17
2018-09-04T21:31:00.503Z,17.00
2018-09-04T21:33:29.129Z,14.90
2018-09-04T21:35:57.704Z,14.87
2018-09-04T21:38:26.172Z,16.80
2018-09-04T21:40:54.577Z,16.50
2018-09-04T21:43:23.048Z,16.40
2018-09-04T21:45:51.580Z,16.97
2018-09-04T21:48:20.114Z,14.00
2018-09-04T21:50:48.698Z,15.23
2018-09-04T21:53:17.766Z,14.77
2018-09-04T21:55:46.397Z,16.07
2018-09-04T21:58:14.985Z,14.70
2018-09-04T22:00:43.936Z,15.17
2018-09-04T22:03:12.627Z,16.27
2018-09-04T22:05:41.343Z,14.33
2018-09-04T22:08:09.904Z,16.30
2018-09-04T22:10:38.379Z,20.90
2018-09-04T22:13:07.206Z,17.13
2018-09-04T22:15:36.035Z,20.63
2018-09-04T22:18:04.488Z,19.20
2018-09-04T22:20:33.183Z,15.67
2018-09-04T22:23:01.780Z,18.80
2018-09-04T22:25:30.719Z,15.80
2018-09-04T22:27:59.414Z,16.83
2018-09-04T22:30:27.902Z,17.37
2018-09-04T22:32:56.776Z,18.87
2018-09-04T22:35:25.327Z,19.07
2018-09-04T22:37:53.796Z,19.63
2018-09-04T22:40:22.395Z,16.67
2018-09-04T22:42:50.992Z,15.10
2018-09-04T22:45:19.557Z,16.73
2018-09-04T22:47:48.105Z,19.30
2018-09-04T22:50:22.089Z,15.53
2018-09-04T22:52:50.659Z,16.07
2018-09-04T22:55:19.255Z,15.30
2018-09-04T22:57:47.736Z,16.37
2018-09-04T23:00:17.607Z,17.53
2018-09-04T23:02:47.202Z,16.23
2018-09-04T23:05:15.582Z,17.03
2018-09-04T23:07:44.096Z,15.17
2018-09-04T23:10:12.597Z,15.50
2018-09-04T23:12:41.046Z,17.53
2018-09-04T23:15:09.742Z,19.30
2018-09-04T23:17:38.221Z,18.30
2018-09-04T23:20:07.064Z,18.37
2018-09-04T23:22:35.613Z,18.97
2018-09-04T23:25:04.072Z,18.07
2018-09-04T23:27:32.594Z,15.40
2018-09-04T23:30:01.462Z,16.37
2018-09-04T23:32:29.903Z,16.73
2018-09-04T23:34:58.392Z,19.30
2018-09-04T23:37:29.521Z,17.17
2018-09-04T23:39:58.230Z,18.30
2018-09-04T23:42:31.240Z,18.00
2018-09-04T23:45:00.096Z,17.60
2018-09-04T23:47:28.572Z,17.63
2018-09-04T23:49:57.253Z,18.30
2018-09-04T23:52:25.904Z,19.97
2018-09-04T23:54:54.488Z,20.57
2018-09-04T23:57:23.085Z,23.27
2018-09-04T23:59:51.576Z,18.97
